sensor_id;sensor_type;location;lat;lon;timestamp;P1;durP1;ratioP1;P2;durP2;ratioP2
1567;SDS011;777;47.156;8.326;2023-07-13T00:01:04;5.78;;;3.40;;
1567;SDS011;777;47.156;8.326;2023-07-13T00:03:31;5.53;;;3.05;;
1567;SDS011;777;47.156;8.326;2023-07-13T00:06:00;6.93;;;3.78;;
1567;SDS011;777;47.156;8.326;2023-07-13T00:08:29;4.28;;;2.95;;
1567;SDS011;777;47.156;8.326;2023-07-13T00:10:58;3.63;;;2.97;;
1567;SDS011;777;47.156;8.326;2023-07-13T00:13:26;5.85;;;3.50;;
1567;SDS011;777;47.156;8.326;2023-07-13T00:15:53;4.07;;;2.90;;
1567;SDS011;777;47.156;8.326;2023-07-13T00:18:21;4.18;;;3.55;;
1567;SDS011;777;47.156;8.326;2023-07-13T00:20:48;5.07;;;3.60;;
1567;SDS011;777;47.156;8.326;2023-07-13T00:23:15;4.45;;;3.40;;
1567;SDS011;777;47.156;8.326;2023-07-13T00:25:44;6.55;;;3.50;;
1567;SDS011;777;47.156;8.326;2023-07-13T00:28:11;7.97;;;4.15;;
1567;SDS011;777;47.156;8.326;2023-07-13T00:30:39;7.30;;;3.70;;
1567;SDS011;777;47.156;8.326;2023-07-13T00:33:06;7.55;;;4.65;;
1567;SDS011;777;47.156;8.326;2023-07-13T00:35:34;6.53;;;4.35;;
1567;SDS011;777;47.156;8.326;2023-07-13T00:38:03;7.25;;;4.20;;
1567;SDS011;777;47.156;8.326;2023-07-13T00:40:30;6.03;;;4.03;;
1567;SDS011;777;47.156;8.326;2023-07-13T00:42:58;5.65;;;3.80;;
1567;SDS011;777;47.156;8.326;2023-07-13T00:48:32;7.53;;;4.22;;
1567;SDS011;777;47.156;8.326;2023-07-13T00:51:02;7.53;;;3.75;;
1567;SDS011;777;47.156;8.326;2023-07-13T00:53:30;6.20;;;3.92;;
1567;SDS011;777;47.156;8.326;2023-07-13T00:55:59;8.40;;;4.07;;
1567;SDS011;777;47.156;8.326;2023-07-13T00:58:27;10.23;;;4.60;;
1567;SDS011;777;47.156;8.326;2023-07-13T01:00:56;7.15;;;3.65;;
1567;SDS011;777;47.156;8.326;2023-07-13T01:03:23;5.97;;;3.80;;
1567;SDS011;777;47.156;8.326;2023-07-13T01:05:53;6.05;;;3.70;;
1567;SDS011;777;47.156;8.326;2023-07-13T01:08:19;6.90;;;4.70;;
1567;SDS011;777;47.156;8.326;2023-07-13T01:10:51;10.23;;;5.28;;
1567;SDS011;777;47.156;8.326;2023-07-13T01:13:19;7.40;;;4.70;;
1567;SDS011;777;47.156;8.326;2023-07-13T01:15:47;10.05;;;4.80;;
1567;SDS011;777;47.156;8.326;2023-07-13T01:18:18;10.10;;;5.88;;
1567;SDS011;777;47.156;8.326;2023-07-13T01:20:51;8.18;;;4.80;;
1567;SDS011;777;47.156;8.326;2023-07-13T01:23:19;7.88;;;5.53;;
1567;SDS011;777;47.156;8.326;2023-07-13T01:25:47;9.02;;;5.97;;
1567;SDS011;777;47.156;8.326;2023-07-13T01:28:14;9.35;;;5.10;;
1567;SDS011;777;47.156;8.326;2023-07-13T01:30:42;6.32;;;5.28;;
1567;SDS011;777;47.156;8.326;2023-07-13T01:33:10;8.35;;;5.65;;
1567;SDS011;777;47.156;8.326;2023-07-13T01:35:37;6.53;;;5.00;;
1567;SDS011;777;47.156;8.326;2023-07-13T01:38:07;10.15;;;5.35;;
1567;SDS011;777;47.156;8.326;2023-07-13T01:40:35;5.88;;;4.70;;
1567;SDS011;777;47.156;8.326;2023-07-13T01:43:03;8.13;;;4.00;;
1567;SDS011;777;47.156;8.326;2023-07-13T01:45:31;6.15;;;4.43;;
1567;SDS011;777;47.156;8.326;2023-07-13T01:47:58;6.55;;;4.70;;
1567;SDS011;777;47.156;8.326;2023-07-13T01:50:26;6.88;;;4.07;;
1567;SDS011;777;47.156;8.326;2023-07-13T01:52:53;6.22;;;4.50;;
1567;SDS011;777;47.156;8.326;2023-07-13T01:55:22;5.47;;;4.10;;
1567;SDS011;777;47.156;8.326;2023-07-13T01:57:49;6.03;;;4.22;;
1567;SDS011;777;47.156;8.326;2023-07-13T02:00:16;5.10;;;4.20;;
1567;SDS011;777;47.156;8.326;2023-07-13T02:02:46;6.07;;;4.22;;
1567;SDS011;777;47.156;8.326;2023-07-13T02:05:14;8.48;;;4.72;;
1567;SDS011;777;47.156;8.326;2023-07-13T02:07:41;5.65;;;4.40;;
1567;SDS011;777;47.156;8.326;2023-07-13T02:10:09;6.68;;;5.00;;
1567;SDS011;777;47.156;8.326;2023-07-13T02:12:38;6.07;;;5.45;;
1567;SDS011;777;47.156;8.326;2023-07-13T02:15:07;5.53;;;4.97;;
1567;SDS011;777;47.156;8.326;2023-07-13T02:17:35;8.00;;;4.88;;
1567;SDS011;777;47.156;8.326;2023-07-13T02:20:03;8.43;;;5.30;;
1567;SDS011;777;47.156;8.326;2023-07-13T02:22:31;6.60;;;5.18;;
1567;SDS011;777;47.156;8.326;2023-07-13T02:24:58;6.93;;;5.60;;
1567;SDS011;777;47.156;8.326;2023-07-13T02:27:26;7.28;;;5.40;;
1567;SDS011;777;47.156;8.326;2023-07-13T02:29:54;7.50;;;5.68;;
1567;SDS011;777;47.156;8.326;2023-07-13T02:32:21;7.07;;;5.25;;
1567;SDS011;777;47.156;8.326;2023-07-13T02:34:50;9.93;;;6.18;;
1567;SDS011;777;47.156;8.326;2023-07-13T02:37:18;10.05;;;6.38;;
1567;SDS011;777;47.156;8.326;2023-07-13T02:39:46;6.38;;;5.72;;
1567;SDS011;777;47.156;8.326;2023-07-13T02:42:14;8.30;;;5.90;;
1567;SDS011;777;47.156;8.326;2023-07-13T02:44:43;8.90;;;6.68;;
1567;SDS011;777;47.156;8.326;2023-07-13T02:47:11;9.80;;;6.65;;
1567;SDS011;777;47.156;8.326;2023-07-13T02:49:39;10.98;;;7.13;;
1567;SDS011;777;47.156;8.326;2023-07-13T02:52:06;9.93;;;7.57;;
1567;SDS011;777;47.156;8.326;2023-07-13T02:54:33;10.77;;;7.28;;
1567;SDS011;777;47.156;8.326;2023-07-13T02:57:00;10.57;;;7.82;;
1567;SDS011;777;47.156;8.326;2023-07-13T02:59:27;10.32;;;8.38;;
1567;SDS011;777;47.156;8.326;2023-07-13T03:01:55;9.18;;;8.10;;
1567;SDS011;777;47.156;8.326;2023-07-13T03:04:24;12.00;;;8.10;;
1567;SDS011;777;47.156;8.326;2023-07-13T03:06:51;11.23;;;8.25;;
1567;SDS011;777;47.156;8.326;2023-07-13T03:09:24;10.63;;;8.15;;
1567;SDS011;777;47.156;8.326;2023-07-13T03:11:53;12.07;;;7.90;;
1567;SDS011;777;47.156;8.326;2023-07-13T03:14:25;8.50;;;7.60;;
1567;SDS011;777;47.156;8.326;2023-07-13T03:16:52;11.75;;;8.30;;
1567;SDS011;777;47.156;8.326;2023-07-13T03:19:24;9.80;;;7.72;;
1567;SDS011;777;47.156;8.326;2023-07-13T03:21:51;10.35;;;7.38;;
1567;SDS011;777;47.156;8.326;2023-07-13T03:24:18;11.93;;;6.32;;
1567;SDS011;777;47.156;8.326;2023-07-13T03:26:46;8.55;;;7.15;;
1567;SDS011;777;47.156;8.326;2023-07-13T03:29:13;11.50;;;7.05;;
1567;SDS011;777;47.156;8.326;2023-07-13T03:31:41;8.30;;;6.70;;
1567;SDS011;777;47.156;8.326;2023-07-13T03:34:08;10.38;;;7.10;;
1567;SDS011;777;47.156;8.326;2023-07-13T03:36:38;8.55;;;5.82;;
1567;SDS011;777;47.156;8.326;2023-07-13T03:39:08;6.72;;;5.13;;
1567;SDS011;777;47.156;8.326;2023-07-13T03:41:53;7.70;;;5.35;;
1567;SDS011;777;47.156;8.326;2023-07-13T03:44:22;5.90;;;5.10;;
1567;SDS011;777;47.156;8.326;2023-07-13T03:46:53;4.60;;;4.18;;
1567;SDS011;777;47.156;8.326;2023-07-13T03:49:20;6.05;;;4.80;;
1567;SDS011;777;47.156;8.326;2023-07-13T03:51:48;6.07;;;4.55;;
1567;SDS011;777;47.156;8.326;2023-07-13T03:54:15;4.85;;;3.97;;
1567;SDS011;777;47.156;8.326;2023-07-13T03:56:43;4.70;;;3.97;;
1567;SDS011;777;47.156;8.326;2023-07-13T03:59:11;5.75;;;3.80;;
1567;SDS011;777;47.156;8.326;2023-07-13T04:01:38;4.32;;;3.67;;
1567;SDS011;777;47.156;8.326;2023-07-13T04:04:05;5.95;;;3.92;;
1567;SDS011;777;47.156;8.326;2023-07-13T04:06:32;7.22;;;4.20;;
1567;SDS011;777;47.156;8.326;2023-07-13T04:09:02;5.95;;;4.05;;
1567;SDS011;777;47.156;8.326;2023-07-13T04:11:31;5.25;;;4.05;;
1567;SDS011;777;47.156;8.326;2023-07-13T04:14:01;4.88;;;4.00;;
1567;SDS011;777;47.156;8.326;2023-07-13T04:16:29;4.35;;;3.95;;
1567;SDS011;777;47.156;8.326;2023-07-13T04:18:57;4.93;;;4.15;;
1567;SDS011;777;47.156;8.326;2023-07-13T04:21:25;4.78;;;4.28;;
1567;SDS011;777;47.156;8.326;2023-07-13T04:23:53;9.02;;;4.20;;
1567;SDS011;777;47.156;8.326;2023-07-13T04:26:21;5.50;;;3.67;;
1567;SDS011;777;47.156;8.326;2023-07-13T04:28:49;4.25;;;3.83;;
1567;SDS011;777;47.156;8.326;2023-07-13T04:31:16;3.78;;;3.47;;
1567;SDS011;777;47.156;8.326;2023-07-13T04:33:43;5.32;;;3.58;;
1567;SDS011;777;47.156;8.326;2023-07-13T04:36:11;4.63;;;3.63;;
1567;SDS011;777;47.156;8.326;2023-07-13T04:38:38;7.63;;;3.63;;
1567;SDS011;777;47.156;8.326;2023-07-13T04:41:05;5.70;;;3.80;;
1567;SDS011;777;47.156;8.326;2023-07-13T04:43:35;4.93;;;3.75;;
1567;SDS011;777;47.156;8.326;2023-07-13T04:46:03;5.13;;;4.63;;
1567;SDS011;777;47.156;8.326;2023-07-13T04:48:31;5.15;;;4.05;;
1567;SDS011;777;47.156;8.326;2023-07-13T04:50:58;4.57;;;4.03;;
1567;SDS011;777;47.156;8.326;2023-07-13T04:53:27;5.57;;;4.13;;
1567;SDS011;777;47.156;8.326;2023-07-13T04:55:54;7.30;;;4.75;;
1567;SDS011;777;47.156;8.326;2023-07-13T04:58:22;5.35;;;4.30;;
1567;SDS011;777;47.156;8.326;2023-07-13T05:00:51;5.20;;;4.20;;
1567;SDS011;777;47.156;8.326;2023-07-13T05:03:18;4.95;;;4.38;;
1567;SDS011;777;47.156;8.326;2023-07-13T05:05:54;6.97;;;5.35;;
1567;SDS011;777;47.156;8.326;2023-07-13T05:08:22;6.22;;;5.22;;
1567;SDS011;777;47.156;8.326;2023-07-13T05:10:49;6.38;;;5.60;;
1567;SDS011;777;47.156;8.326;2023-07-13T05:13:17;8.48;;;5.57;;
1567;SDS011;777;47.156;8.326;2023-07-13T05:15:44;7.28;;;5.88;;
1567;SDS011;777;47.156;8.326;2023-07-13T05:18:13;5.80;;;5.10;;
1567;SDS011;777;47.156;8.326;2023-07-13T05:20:40;7.57;;;5.65;;
1567;SDS011;777;47.156;8.326;2023-07-13T05:23:07;7.72;;;5.97;;
1567;SDS011;777;47.156;8.326;2023-07-13T05:25:34;6.60;;;5.35;;
1567;SDS011;777;47.156;8.326;2023-07-13T05:28:01;6.18;;;5.15;;
1567;SDS011;777;47.156;8.326;2023-07-13T05:30:28;5.75;;;5.20;;
1567;SDS011;777;47.156;8.326;2023-07-13T05:32:55;8.63;;;6.85;;
1567;SDS011;777;47.156;8.326;2023-07-13T05:35:24;6.60;;;5.93;;
1567;SDS011;777;47.156;8.326;2023-07-13T05:37:51;9.35;;;5.63;;
1567;SDS011;777;47.156;8.326;2023-07-13T05:40:18;7.07;;;5.53;;
1567;SDS011;777;47.156;8.326;2023-07-13T05:42:45;8.38;;;6.03;;
1567;SDS011;777;47.156;8.326;2023-07-13T05:45:12;8.02;;;6.70;;
1567;SDS011;777;47.156;8.326;2023-07-13T05:47:39;8.70;;;7.80;;
1567;SDS011;777;47.156;8.326;2023-07-13T05:50:06;8.35;;;7.43;;
1567;SDS011;777;47.156;8.326;2023-07-13T05:52:35;10.57;;;8.32;;
1567;SDS011;777;47.156;8.326;2023-07-13T05:55:03;9.10;;;8.00;;
1567;SDS011;777;47.156;8.326;2023-07-13T05:57:30;10.27;;;8.75;;
1567;SDS011;777;47.156;8.326;2023-07-13T05:59:57;9.75;;;8.45;;
1567;SDS011;777;47.156;8.326;2023-07-13T06:02:24;9.55;;;8.50;;
1567;SDS011;777;47.156;8.326;2023-07-13T06:04:51;10.82;;;8.73;;
1567;SDS011;777;47.156;8.326;2023-07-13T06:07:18;9.85;;;8.02;;
1567;SDS011;777;47.156;8.326;2023-07-13T06:09:47;11.35;;;8.80;;
1567;SDS011;777;47.156;8.326;2023-07-13T06:12:14;13.80;;;9.40;;
1567;SDS011;777;47.156;8.326;2023-07-13T06:14:41;11.30;;;9.55;;
1567;SDS011;777;47.156;8.326;2023-07-13T06:17:08;10.00;;;8.95;;
1567;SDS011;777;47.156;8.326;2023-07-13T06:19:35;12.35;;;10.88;;
1567;SDS011;777;47.156;8.326;2023-07-13T06:22:03;11.77;;;10.57;;
1567;SDS011;777;47.156;8.326;2023-07-13T06:24:30;13.10;;;10.80;;
1567;SDS011;777;47.156;8.326;2023-07-13T06:26:59;12.15;;;9.85;;
1567;SDS011;777;47.156;8.326;2023-07-13T06:29:26;13.40;;;10.02;;
1567;SDS011;777;47.156;8.326;2023-07-13T06:31:53;11.95;;;9.48;;
1567;SDS011;777;47.156;8.326;2023-07-13T06:34:20;11.18;;;10.00;;
1567;SDS011;777;47.156;8.326;2023-07-13T06:36:47;12.27;;;9.27;;
1567;SDS011;777;47.156;8.326;2023-07-13T06:39:15;12.93;;;9.30;;
1567;SDS011;777;47.156;8.326;2023-07-13T06:41:42;11.63;;;8.63;;
1567;SDS011;777;47.156;8.326;2023-07-13T06:44:14;8.35;;;7.47;;
1567;SDS011;777;47.156;8.326;2023-07-13T06:46:41;8.27;;;7.45;;
1567;SDS011;777;47.156;8.326;2023-07-13T06:49:08;8.07;;;7.35;;
1567;SDS011;777;47.156;8.326;2023-07-13T06:51:35;9.63;;;7.45;;
1567;SDS011;777;47.156;8.326;2023-07-13T06:54:02;8.55;;;7.75;;
1567;SDS011;777;47.156;8.326;2023-07-13T06:56:30;6.22;;;5.60;;
1567;SDS011;777;47.156;8.326;2023-07-13T06:58:57;4.85;;;4.35;;
1567;SDS011;777;47.156;8.326;2023-07-13T07:01:26;5.10;;;4.50;;
1567;SDS011;777;47.156;8.326;2023-07-13T07:03:53;4.22;;;3.83;;
1567;SDS011;777;47.156;8.326;2023-07-13T07:06:20;5.38;;;4.38;;
1567;SDS011;777;47.156;8.326;2023-07-13T07:08:49;5.25;;;4.75;;
1567;SDS011;777;47.156;8.326;2023-07-13T07:11:16;4.70;;;4.30;;
1567;SDS011;777;47.156;8.326;2023-07-13T07:13:45;5.22;;;4.32;;
1567;SDS011;777;47.156;8.326;2023-07-13T07:16:12;3.97;;;3.58;;
1567;SDS011;777;47.156;8.326;2023-07-13T07:18:40;3.83;;;3.28;;
1567;SDS011;777;47.156;8.326;2023-07-13T07:21:08;4.07;;;3.35;;
1567;SDS011;777;47.156;8.326;2023-07-13T07:23:35;4.22;;;3.30;;
1567;SDS011;777;47.156;8.326;2023-07-13T07:26:02;3.28;;;2.97;;
1567;SDS011;777;47.156;8.326;2023-07-13T07:28:29;3.20;;;2.90;;
1567;SDS011;777;47.156;8.326;2023-07-13T07:30:57;3.25;;;2.83;;
1567;SDS011;777;47.156;8.326;2023-07-13T07:33:24;3.17;;;2.45;;
1567;SDS011;777;47.156;8.326;2023-07-13T07:35:54;5.07;;;2.80;;
1567;SDS011;777;47.156;8.326;2023-07-13T07:38:21;2.72;;;2.45;;
1567;SDS011;777;47.156;8.326;2023-07-13T07:40:48;3.30;;;2.35;;
1567;SDS011;777;47.156;8.326;2023-07-13T07:43:15;5.10;;;2.83;;
1567;SDS011;777;47.156;8.326;2023-07-13T07:45:43;3.47;;;2.40;;
1567;SDS011;777;47.156;8.326;2023-07-13T07:48:11;5.75;;;2.50;;
1567;SDS011;777;47.156;8.326;2023-07-13T07:50:38;3.05;;;2.30;;
1567;SDS011;777;47.156;8.326;2023-07-13T07:53:06;2.60;;;2.00;;
1567;SDS011;777;47.156;8.326;2023-07-13T07:55:35;3.20;;;2.00;;
1567;SDS011;777;47.156;8.326;2023-07-13T07:58:03;4.78;;;2.60;;
1567;SDS011;777;47.156;8.326;2023-07-13T08:00:31;2.97;;;2.10;;
1567;SDS011;777;47.156;8.326;2023-07-13T08:02:58;3.60;;;2.60;;
1567;SDS011;777;47.156;8.326;2023-07-13T08:05:25;4.00;;;2.75;;
1567;SDS011;777;47.156;8.326;2023-07-13T08:07:52;5.53;;;2.53;;
1567;SDS011;777;47.156;8.326;2023-07-13T08:10:21;3.22;;;2.92;;
1567;SDS011;777;47.156;8.326;2023-07-13T08:12:48;7.40;;;2.58;;
1567;SDS011;777;47.156;8.326;2023-07-13T08:15:15;3.92;;;2.40;;
1567;SDS011;777;47.156;8.326;2023-07-13T08:17:45;2.80;;;2.40;;
1567;SDS011;777;47.156;8.326;2023-07-13T08:20:13;2.20;;;1.90;;
1567;SDS011;777;47.156;8.326;2023-07-13T08:22:40;5.22;;;2.00;;
1567;SDS011;777;47.156;8.326;2023-07-13T08:25:07;4.50;;;2.00;;
1567;SDS011;777;47.156;8.326;2023-07-13T08:27:36;2.97;;;2.05;;
1567;SDS011;777;47.156;8.326;2023-07-13T08:30:03;2.40;;;1.90;;
1567;SDS011;777;47.156;8.326;2023-07-13T08:32:33;3.30;;;1.90;;
1567;SDS011;777;47.156;8.326;2023-07-13T08:35:00;2.63;;;1.70;;
1567;SDS011;777;47.156;8.326;2023-07-13T08:37:27;2.58;;;1.95;;
1567;SDS011;777;47.156;8.326;2023-07-13T08:39:54;2.20;;;1.80;;
1567;SDS011;777;47.156;8.326;2023-07-13T08:42:31;2.83;;;1.92;;
1567;SDS011;777;47.156;8.326;2023-07-13T08:45:14;3.88;;;2.10;;
1567;SDS011;777;47.156;8.326;2023-07-13T08:50:17;2.25;;;1.77;;
1567;SDS011;777;47.156;8.326;2023-07-13T08:52:46;3.00;;;1.60;;
1567;SDS011;777;47.156;8.326;2023-07-13T08:55:15;3.17;;;1.80;;
1567;SDS011;777;47.156;8.326;2023-07-13T08:57:46;2.40;;;1.80;;
1567;SDS011;777;47.156;8.326;2023-07-13T09:00:19;3.40;;;1.98;;
1567;SDS011;777;47.156;8.326;2023-07-13T09:02:46;2.60;;;1.50;;
1567;SDS011;777;47.156;8.326;2023-07-13T09:05:22;2.03;;;1.52;;
1567;SDS011;777;47.156;8.326;2023-07-13T09:08:06;2.20;;;1.50;;
1567;SDS011;777;47.156;8.326;2023-07-13T09:10:59;2.80;;;2.08;;
1567;SDS011;777;47.156;8.326;2023-07-13T09:13:33;2.60;;;2.10;;
1567;SDS011;777;47.156;8.326;2023-07-13T09:16:11;2.90;;;2.17;;
1567;SDS011;777;47.156;8.326;2023-07-13T09:18:39;3.08;;;1.75;;
1567;SDS011;777;47.156;8.326;2023-07-13T09:21:11;2.05;;;1.63;;
1567;SDS011;777;47.156;8.326;2023-07-13T09:23:40;3.67;;;1.83;;
1567;SDS011;777;47.156;8.326;2023-07-13T09:26:12;2.15;;;1.95;;
1567;SDS011;777;47.156;8.326;2023-07-13T09:28:44;3.40;;;2.00;;
1567;SDS011;777;47.156;8.326;2023-07-13T09:31:15;3.60;;;1.80;;
1567;SDS011;777;47.156;8.326;2023-07-13T09:33:45;2.63;;;1.80;;
1567;SDS011;777;47.156;8.326;2023-07-13T09:36:16;4.15;;;1.90;;
1567;SDS011;777;47.156;8.326;2023-07-13T09:38:46;4.43;;;2.35;;
1567;SDS011;777;47.156;8.326;2023-07-13T09:41:17;3.40;;;2.70;;
1567;SDS011;777;47.156;8.326;2023-07-13T09:44:06;3.78;;;2.88;;
1567;SDS011;777;47.156;8.326;2023-07-13T09:46:37;4.40;;;3.15;;
1567;SDS011;777;47.156;8.326;2023-07-13T09:49:07;4.10;;;3.17;;
1567;SDS011;777;47.156;8.326;2023-07-13T09:51:37;4.05;;;3.38;;
1567;SDS011;777;47.156;8.326;2023-07-13T09:54:04;5.85;;;4.20;;
1567;SDS011;777;47.156;8.326;2023-07-13T09:56:31;5.90;;;5.05;;
1567;SDS011;777;47.156;8.326;2023-07-13T09:58:59;4.70;;;3.75;;
1567;SDS011;777;47.156;8.326;2023-07-13T10:01:33;3.72;;;3.30;;
1567;SDS011;777;47.156;8.326;2023-07-13T10:04:03;4.78;;;3.65;;
1567;SDS011;777;47.156;8.326;2023-07-13T10:06:39;8.38;;;5.07;;
1567;SDS011;777;47.156;8.326;2023-07-13T10:09:08;3.70;;;3.40;;
1567;SDS011;777;47.156;8.326;2023-07-13T10:11:35;3.50;;;3.20;;
1567;SDS011;777;47.156;8.326;2023-07-13T10:14:09;4.43;;;4.00;;
1567;SDS011;777;47.156;8.326;2023-07-13T10:16:39;4.97;;;4.00;;
1567;SDS011;777;47.156;8.326;2023-07-13T10:19:12;4.40;;;3.50;;
1567;SDS011;777;47.156;8.326;2023-07-13T10:21:47;4.22;;;3.30;;
1567;SDS011;777;47.156;8.326;2023-07-13T10:24:21;3.35;;;2.97;;
1567;SDS011;777;47.156;8.326;2023-07-13T10:26:51;2.70;;;2.35;;
1567;SDS011;777;47.156;8.326;2023-07-13T10:29:23;5.13;;;2.83;;
1567;SDS011;777;47.156;8.326;2023-07-13T10:31:54;3.88;;;2.63;;
1567;SDS011;777;47.156;8.326;2023-07-13T10:34:24;3.65;;;2.53;;
1567;SDS011;777;47.156;8.326;2023-07-13T10:36:51;2.95;;;2.47;;
1567;SDS011;777;47.156;8.326;2023-07-13T10:39:20;2.85;;;2.55;;
1567;SDS011;777;47.156;8.326;2023-07-13T10:41:50;3.83;;;2.45;;
1567;SDS011;777;47.156;8.326;2023-07-13T10:44:21;4.18;;;2.95;;
1567;SDS011;777;47.156;8.326;2023-07-13T10:46:54;3.00;;;2.67;;
1567;SDS011;777;47.156;8.326;2023-07-13T10:49:24;2.95;;;2.47;;
1567;SDS011;777;47.156;8.326;2023-07-13T10:51:55;3.22;;;2.50;;
1567;SDS011;777;47.156;8.326;2023-07-13T10:54:27;2.65;;;2.28;;
1567;SDS011;777;47.156;8.326;2023-07-13T10:59:45;8.98;;;2.63;;
1567;SDS011;777;47.156;8.326;2023-07-13T11:02:15;3.03;;;2.00;;
1567;SDS011;777;47.156;8.326;2023-07-13T11:04:51;3.20;;;2.35;;
1567;SDS011;777;47.156;8.326;2023-07-13T11:07:20;5.82;;;2.13;;
1567;SDS011;777;47.156;8.326;2023-07-13T11:09:51;3.15;;;2.15;;
1567;SDS011;777;47.156;8.326;2023-07-13T11:12:27;2.72;;;2.00;;
1567;SDS011;777;47.156;8.326;2023-07-13T11:15:11;5.10;;;2.33;;
1567;SDS011;777;47.156;8.326;2023-07-13T11:17:46;3.80;;;2.45;;
1567;SDS011;777;47.156;8.326;2023-07-13T11:23:19;2.90;;;2.38;;
1567;SDS011;777;47.156;8.326;2023-07-13T11:25:53;3.17;;;2.28;;
1567;SDS011;777;47.156;8.326;2023-07-13T11:28:24;2.28;;;2.00;;
1567;SDS011;777;47.156;8.326;2023-07-13T11:31:03;2.22;;;1.60;;
1567;SDS011;777;47.156;8.326;2023-07-13T11:36:37;2.55;;;1.77;;
1567;SDS011;777;47.156;8.326;2023-07-13T11:39:12;2.00;;;1.80;;
1567;SDS011;777;47.156;8.326;2023-07-13T11:41:45;2.42;;;1.70;;
1567;SDS011;777;47.156;8.326;2023-07-13T11:44:18;2.30;;;1.30;;
1567;SDS011;777;47.156;8.326;2023-07-13T11:46:48;3.30;;;1.20;;
1567;SDS011;777;47.156;8.326;2023-07-13T11:49:17;2.47;;;1.20;;
1567;SDS011;777;47.156;8.326;2023-07-13T11:51:47;1.80;;;1.20;;
1567;SDS011;777;47.156;8.326;2023-07-13T11:56:51;1.70;;;1.25;;
1567;SDS011;777;47.156;8.326;2023-07-13T11:59:19;3.10;;;1.35;;
1567;SDS011;777;47.156;8.326;2023-07-13T12:01:49;3.47;;;1.10;;
1567;SDS011;777;47.156;8.326;2023-07-13T12:04:20;6.45;;;1.45;;
1567;SDS011;777;47.156;8.326;2023-07-13T12:06:55;1.70;;;1.02;;
1567;SDS011;777;47.156;8.326;2023-07-13T12:09:26;3.42;;;1.20;;
1567;SDS011;777;47.156;8.326;2023-07-13T12:11:56;2.45;;;1.27;;
1567;SDS011;777;47.156;8.326;2023-07-13T12:14:25;2.20;;;1.20;;
1567;SDS011;777;47.156;8.326;2023-07-13T12:16:52;1.85;;;1.17;;
1567;SDS011;777;47.156;8.326;2023-07-13T12:19:21;1.77;;;1.00;;
1567;SDS011;777;47.156;8.326;2023-07-13T12:21:50;2.15;;;1.20;;
1567;SDS011;777;47.156;8.326;2023-07-13T12:24:21;4.35;;;1.17;;
1567;SDS011;777;47.156;8.326;2023-07-13T12:26:52;1.90;;;1.30;;
1567;SDS011;777;47.156;8.326;2023-07-13T12:29:20;3.10;;;1.30;;
1567;SDS011;777;47.156;8.326;2023-07-13T12:31:48;1.98;;;0.88;;
1567;SDS011;777;47.156;8.326;2023-07-13T12:34:18;4.10;;;1.15;;
1567;SDS011;777;47.156;8.326;2023-07-13T12:36:46;2.38;;;1.00;;
1567;SDS011;777;47.156;8.326;2023-07-13T12:39:16;2.75;;;1.10;;
1567;SDS011;777;47.156;8.326;2023-07-13T12:41:47;2.15;;;1.02;;
1567;SDS011;777;47.156;8.326;2023-07-13T12:44:15;1.30;;;0.90;;
1567;SDS011;777;47.156;8.326;2023-07-13T12:46:53;1.98;;;0.82;;
1567;SDS011;777;47.156;8.326;2023-07-13T12:49:24;2.60;;;1.08;;
1567;SDS011;777;47.156;8.326;2023-07-13T12:51:59;3.10;;;1.00;;
1567;SDS011;777;47.156;8.326;2023-07-13T12:54:27;1.30;;;0.95;;
1567;SDS011;777;47.156;8.326;2023-07-13T12:56:57;1.40;;;0.77;;
1567;SDS011;777;47.156;8.326;2023-07-13T12:59:29;1.30;;;1.08;;
1567;SDS011;777;47.156;8.326;2023-07-13T13:02:02;2.80;;;0.90;;
1567;SDS011;777;47.156;8.326;2023-07-13T13:04:48;1.70;;;0.95;;
1567;SDS011;777;47.156;8.326;2023-07-13T13:07:15;1.23;;;0.88;;
1567;SDS011;777;47.156;8.326;2023-07-13T13:09:43;1.63;;;1.00;;
1567;SDS011;777;47.156;8.326;2023-07-13T13:12:11;1.23;;;0.80;;
1567;SDS011;777;47.156;8.326;2023-07-13T13:14:38;1.08;;;0.73;;
1567;SDS011;777;47.156;8.326;2023-07-13T13:17:07;1.95;;;0.80;;
1567;SDS011;777;47.156;8.326;2023-07-13T13:19:45;1.23;;;0.70;;
1567;SDS011;777;47.156;8.326;2023-07-13T13:22:12;3.10;;;0.90;;
1567;SDS011;777;47.156;8.326;2023-07-13T13:24:41;1.38;;;0.70;;
1567;SDS011;777;47.156;8.326;2023-07-13T13:29:45;2.03;;;0.90;;
1567;SDS011;777;47.156;8.326;2023-07-13T13:32:12;4.43;;;0.90;;
1567;SDS011;777;47.156;8.326;2023-07-13T13:34:41;5.35;;;1.00;;
1567;SDS011;777;47.156;8.326;2023-07-13T13:37:11;1.45;;;0.80;;
1567;SDS011;777;47.156;8.326;2023-07-13T13:39:44;1.10;;;0.70;;
1567;SDS011;777;47.156;8.326;2023-07-13T13:42:12;2.35;;;0.70;;
1567;SDS011;777;47.156;8.326;2023-07-13T13:44:41;1.42;;;0.75;;
1567;SDS011;777;47.156;8.326;2023-07-13T13:47:13;1.38;;;0.95;;
1567;SDS011;777;47.156;8.326;2023-07-13T13:49:51;1.35;;;0.93;;
1567;SDS011;777;47.156;8.326;2023-07-13T13:52:18;1.73;;;0.75;;
1567;SDS011;777;47.156;8.326;2023-07-13T13:54:46;1.30;;;0.80;;
1567;SDS011;777;47.156;8.326;2023-07-13T13:57:13;1.52;;;0.70;;
1567;SDS011;777;47.156;8.326;2023-07-13T13:59:42;0.70;;;0.68;;
1567;SDS011;777;47.156;8.326;2023-07-13T14:02:15;1.17;;;0.63;;
1567;SDS011;777;47.156;8.326;2023-07-13T14:04:49;1.13;;;0.65;;
1567;SDS011;777;47.156;8.326;2023-07-13T14:07:18;1.67;;;0.70;;
1567;SDS011;777;47.156;8.326;2023-07-13T14:09:45;1.17;;;0.63;;
1567;SDS011;777;47.156;8.326;2023-07-13T14:12:13;2.67;;;0.73;;
1567;SDS011;777;47.156;8.326;2023-07-13T14:14:41;1.92;;;0.80;;
1567;SDS011;777;47.156;8.326;2023-07-13T14:17:11;1.10;;;0.80;;
1567;SDS011;777;47.156;8.326;2023-07-13T14:19:47;0.80;;;0.70;;
1567;SDS011;777;47.156;8.326;2023-07-13T14:22:16;1.23;;;0.70;;
1567;SDS011;777;47.156;8.326;2023-07-13T14:24:44;2.45;;;1.05;;
1567;SDS011;777;47.156;8.326;2023-07-13T14:27:11;1.27;;;0.90;;
1567;SDS011;777;47.156;8.326;2023-07-13T14:29:39;1.13;;;0.75;;
1567;SDS011;777;47.156;8.326;2023-07-13T14:32:09;2.25;;;0.82;;
1567;SDS011;777;47.156;8.326;2023-07-13T14:34:37;2.35;;;0.90;;
1567;SDS011;777;47.156;8.326;2023-07-13T14:37:04;1.30;;;0.82;;
1567;SDS011;777;47.156;8.326;2023-07-13T14:39:31;1.30;;;0.80;;
1567;SDS011;777;47.156;8.326;2023-07-13T14:41:58;2.35;;;0.70;;
1567;SDS011;777;47.156;8.326;2023-07-13T14:44:26;1.08;;;0.70;;
1567;SDS011;777;47.156;8.326;2023-07-13T14:46:55;3.50;;;1.05;;
1567;SDS011;777;47.156;8.326;2023-07-13T14:49:25;1.40;;;0.70;;
1567;SDS011;777;47.156;8.326;2023-07-13T14:51:55;2.30;;;0.93;;
1567;SDS011;777;47.156;8.326;2023-07-13T14:54:24;2.45;;;0.70;;
1567;SDS011;777;47.156;8.326;2023-07-13T14:56:51;1.50;;;0.80;;
1567;SDS011;777;47.156;8.326;2023-07-13T14:59:18;2.95;;;0.75;;
1567;SDS011;777;47.156;8.326;2023-07-13T15:01:46;1.55;;;0.75;;
1567;SDS011;777;47.156;8.326;2023-07-13T15:04:14;0.80;;;0.63;;
1567;SDS011;777;47.156;8.326;2023-07-13T15:06:54;1.40;;;0.65;;
1567;SDS011;777;47.156;8.326;2023-07-13T15:09:22;2.35;;;0.82;;
1567;SDS011;777;47.156;8.326;2023-07-13T15:11:51;1.20;;;0.93;;
1567;SDS011;777;47.156;8.326;2023-07-13T15:14:18;1.67;;;0.98;;
1567;SDS011;777;47.156;8.326;2023-07-13T15:16:46;2.15;;;0.95;;
1567;SDS011;777;47.156;8.326;2023-07-13T15:19:16;1.02;;;0.70;;
1567;SDS011;777;47.156;8.326;2023-07-13T15:21:43;3.65;;;1.10;;
1567;SDS011;777;47.156;8.326;2023-07-13T15:24:12;2.33;;;1.00;;
1567;SDS011;777;47.156;8.326;2023-07-13T15:26:40;2.30;;;1.10;;
1567;SDS011;777;47.156;8.326;2023-07-13T15:29:10;2.00;;;1.20;;
1567;SDS011;777;47.156;8.326;2023-07-13T15:31:37;3.10;;;0.98;;
1567;SDS011;777;47.156;8.326;2023-07-13T15:34:09;2.75;;;1.10;;
1567;SDS011;777;47.156;8.326;2023-07-13T15:36:38;2.50;;;1.42;;
1567;SDS011;777;47.156;8.326;2023-07-13T15:39:06;1.35;;;0.95;;
1567;SDS011;777;47.156;8.326;2023-07-13T15:41:34;2.13;;;1.10;;
1567;SDS011;777;47.156;8.326;2023-07-13T15:44:05;2.20;;;0.90;;
1567;SDS011;777;47.156;8.326;2023-07-13T15:46:50;2.13;;;0.90;;
1567;SDS011;777;47.156;8.326;2023-07-13T15:49:17;1.30;;;0.90;;
1567;SDS011;777;47.156;8.326;2023-07-13T15:51:44;1.73;;;1.00;;
1567;SDS011;777;47.156;8.326;2023-07-13T15:54:13;1.50;;;0.88;;
1567;SDS011;777;47.156;8.326;2023-07-13T15:56:45;2.08;;;0.90;;
1567;SDS011;777;47.156;8.326;2023-07-13T15:59:17;1.45;;;0.90;;